Terminal Aerodrome Forecast
Issued by NWS Pueblo, CO

Home | Current Version | Previous Version | Text Only | Print | Product List | Glossary On
Versions: 1 2 3 4 5 6 7 8 9 10 11 12 13 14 15 16 17
000
FTUS45 KPUB 221753
TAFALS
TAF
KALS 221753Z 2218/2318 24015G25KT P6SM SCT200
     FM230200 VRB06KT P6SM SCT100
     FM230500 17007KT P6SM SCT100
     FM231600 22012G22KT P6SM FEW200=

USA.gov is the U.S. government's official web portal to all federal, state and local government web resources and services.